createdAt,value
2023-07-31T00:01:08.527Z,16.00
2023-07-31T00:03:36.823Z,16.00
2023-07-31T00:06:05.186Z,16.00
2023-07-31T00:08:34.705Z,15.80
2023-07-31T00:11:02.814Z,15.80
2023-07-31T00:13:30.837Z,15.70
2023-07-31T00:15:58.958Z,15.70
2023-07-31T00:18:27.145Z,15.70
2023-07-31T00:20:55.301Z,15.80
2023-07-31T00:23:23.382Z,15.80
2023-07-31T00:25:52.856Z,15.80
2023-07-31T00:28:20.965Z,15.80
2023-07-31T00:30:49.028Z,15.70
2023-07-31T00:33:17.108Z,15.70
2023-07-31T00:35:45.171Z,15.70
2023-07-31T00:38:13.361Z,15.90
2023-07-31T00:40:41.424Z,15.90
2023-07-31T00:43:10.912Z,15.90
2023-07-31T00:45:39.534Z,15.90
2023-07-31T00:48:08.586Z,15.90
2023-07-31T00:50:37.703Z,15.90
2023-07-31T00:53:05.829Z,15.80
2023-07-31T00:55:34.099Z,15.80
2023-07-31T00:58:02.272Z,15.80
2023-07-31T01:00:31.685Z,15.70
2023-07-31T01:03:00.398Z,15.70
2023-07-31T01:05:38.992Z,15.80
2023-07-31T01:08:14.578Z,15.50
2023-07-31T01:10:48.846Z,15.50
2023-07-31T01:13:18.059Z,15.40
2023-07-31T01:15:47.464Z,15.20
2023-07-31T01:18:15.520Z,15.10
2023-07-31T01:20:45.236Z,15.00
2023-07-31T01:23:37.194Z,15.10
2023-07-31T01:26:14.843Z,15.30
2023-07-31T01:28:52.714Z,15.40
2023-07-31T01:31:25.034Z,15.30
2023-07-31T01:33:55.936Z,15.30
2023-07-31T01:36:24.154Z,15.10
2023-07-31T01:38:52.313Z,15.00
2023-07-31T01:41:21.677Z,15.00
2023-07-31T01:43:50.181Z,15.00
2023-07-31T01:46:18.406Z,15.00
2023-07-31T01:48:46.527Z,15.00
2023-07-31T01:51:14.653Z,15.00
2023-07-31T01:53:42.765Z,15.00
2023-07-31T01:56:10.817Z,15.10
2023-07-31T01:58:40.495Z,15.30
2023-07-31T02:01:08.531Z,15.30
2023-07-31T02:03:36.767Z,15.20
2023-07-31T02:06:05.035Z,15.30
2023-07-31T02:08:33.107Z,15.30
2023-07-31T02:11:01.228Z,15.30
2023-07-31T02:13:29.388Z,15.20
2023-07-31T02:15:58.849Z,15.30
2023-07-31T02:18:26.920Z,15.40
2023-07-31T02:20:55.221Z,15.50
2023-07-31T02:23:23.266Z,15.60
2023-07-31T02:25:51.342Z,15.50
2023-07-31T02:28:19.428Z,15.50
2023-07-31T02:30:48.093Z,15.60
2023-07-31T02:33:17.909Z,15.60
2023-07-31T02:35:45.956Z,15.50
2023-07-31T02:38:14.061Z,15.40
2023-07-31T02:40:42.350Z,15.30
2023-07-31T02:43:10.570Z,15.40
2023-07-31T02:45:38.852Z,15.40
2023-07-31T02:48:07.314Z,15.40
2023-07-31T02:50:36.753Z,15.30
2023-07-31T02:53:04.910Z,15.30
2023-07-31T02:55:32.962Z,15.20
2023-07-31T02:58:01.059Z,15.30
2023-07-31T03:00:29.542Z,15.30
2023-07-31T03:02:57.719Z,15.20
2023-07-31T03:05:25.886Z,15.40
2023-07-31T03:07:55.356Z,15.30
2023-07-31T03:10:23.410Z,15.20
2023-07-31T03:12:51.455Z,15.20
2023-07-31T03:15:19.531Z,15.10
2023-07-31T03:17:47.672Z,15.00
2023-07-31T03:20:17.596Z,15.00
2023-07-31T03:22:47.980Z,14.90
2023-07-31T03:25:17.580Z,14.90
2023-07-31T03:27:45.622Z,14.90
2023-07-31T03:30:13.817Z,14.90
2023-07-31T03:32:41.999Z,15.00
2023-07-31T03:35:10.243Z,15.00
2023-07-31T03:37:38.920Z,15.10
2023-07-31T03:40:08.016Z,15.10
2023-07-31T03:42:37.474Z,15.00
2023-07-31T03:45:06.703Z,15.10
2023-07-31T03:47:34.850Z,15.10
2023-07-31T03:50:02.890Z,15.10
2023-07-31T03:52:31.070Z,15.20
2023-07-31T03:54:59.232Z,15.30
2023-07-31T03:57:27.445Z,15.50
2023-07-31T03:59:56.929Z,15.60
2023-07-31T04:02:25.060Z,15.60
2023-07-31T04:04:53.174Z,15.70
2023-07-31T04:07:21.328Z,15.80
2023-07-31T04:09:49.402Z,16.00
2023-07-31T04:12:17.500Z,16.10
2023-07-31T04:14:45.594Z,16.30
2023-07-31T04:17:15.070Z,16.40
2023-07-31T04:19:43.140Z,16.50
2023-07-31T04:22:11.271Z,16.60
2023-07-31T04:24:39.384Z,16.70
2023-07-31T04:27:07.780Z,16.80
2023-07-31T04:29:36.405Z,16.80
2023-07-31T04:32:04.699Z,16.80
2023-07-31T04:34:34.191Z,16.90
2023-07-31T04:37:02.248Z,17.00
2023-07-31T04:39:30.322Z,17.00
2023-07-31T04:41:58.361Z,17.10
2023-07-31T04:44:26.431Z,17.20
2023-07-31T04:46:54.553Z,17.20
2023-07-31T04:49:23.188Z,17.30
2023-07-31T04:51:52.623Z,17.40
2023-07-31T04:54:20.690Z,17.50
2023-07-31T04:56:49.134Z,17.60
2023-07-31T04:59:17.151Z,17.60
2023-07-31T05:01:46.296Z,17.60
2023-07-31T05:04:15.640Z,17.50
2023-07-31T05:06:43.782Z,17.50
2023-07-31T05:09:13.501Z,17.40
2023-07-31T05:11:43.968Z,17.40
2023-07-31T05:14:12.214Z,17.40
2023-07-31T05:16:40.566Z,17.40
2023-07-31T05:19:09.069Z,17.50
2023-07-31T05:21:37.191Z,17.50
2023-07-31T05:24:05.618Z,17.50
2023-07-31T05:26:35.047Z,17.60
2023-07-31T05:29:03.230Z,17.50
2023-07-31T05:31:33.501Z,17.70
2023-07-31T05:34:01.581Z,17.70
2023-07-31T05:36:29.688Z,17.80
2023-07-31T05:38:57.946Z,17.90
2023-07-31T05:41:26.066Z,18.00
2023-07-31T05:43:55.555Z,18.10
2023-07-31T05:46:23.717Z,18.50
2023-07-31T05:48:51.985Z,18.60
2023-07-31T05:51:20.043Z,18.70
2023-07-31T05:53:48.199Z,18.70
2023-07-31T05:56:16.269Z,18.90
2023-07-31T05:58:44.641Z,19.00
2023-07-31T06:01:14.110Z,19.30
2023-07-31T06:03:42.266Z,19.60
2023-07-31T06:06:10.540Z,19.70
2023-07-31T06:08:38.603Z,20.10
2023-07-31T06:11:06.854Z,20.60
2023-07-31T06:13:34.974Z,21.20
2023-07-31T06:16:06.229Z,21.10
2023-07-31T06:18:35.882Z,21.00
2023-07-31T06:21:03.971Z,20.60
2023-07-31T06:23:32.041Z,20.20
2023-07-31T06:26:00.146Z,21.00
2023-07-31T06:28:30.112Z,21.80
2023-07-31T06:30:58.426Z,22.10
2023-07-31T06:33:26.852Z,22.00
2023-07-31T06:35:56.560Z,23.60
2023-07-31T06:38:27.239Z,23.20
2023-07-31T06:40:55.664Z,22.30
2023-07-31T06:43:23.845Z,22.00
2023-07-31T06:45:52.667Z,21.60
2023-07-31T06:48:20.778Z,21.70
2023-07-31T06:50:48.860Z,22.60
2023-07-31T06:53:18.326Z,23.00
2023-07-31T06:55:46.426Z,22.90
2023-07-31T06:58:14.496Z,23.70
2023-07-31T07:00:42.572Z,22.40
2023-07-31T07:03:10.678Z,22.90
2023-07-31T07:05:38.788Z,22.50
2023-07-31T07:08:06.910Z,21.60
2023-07-31T07:10:36.459Z,21.20
2023-07-31T07:13:04.563Z,21.30
2023-07-31T07:15:32.600Z,21.70
2023-07-31T07:18:00.710Z,22.50
2023-07-31T07:20:28.774Z,22.90
2023-07-31T07:22:56.863Z,23.50
2023-07-31T07:25:24.917Z,24.50
2023-07-31T07:27:54.372Z,25.10
2023-07-31T07:30:22.438Z,23.20
2023-07-31T07:32:50.838Z,23.50
2023-07-31T07:35:18.929Z,24.40
2023-07-31T07:37:46.972Z,24.00
2023-07-31T07:40:15.029Z,23.40
2023-07-31T07:42:43.135Z,22.90
2023-07-31T07:45:12.905Z,23.10
2023-07-31T07:47:42.660Z,23.80
2023-07-31T07:50:11.364Z,24.30
2023-07-31T07:52:39.435Z,24.60
2023-07-31T07:55:08.425Z,25.00
2023-07-31T07:57:36.441Z,26.20
2023-07-31T08:00:05.258Z,25.60
2023-07-31T08:02:34.715Z,23.50
2023-07-31T08:05:02.939Z,24.60
2023-07-31T08:07:31.092Z,26.20
2023-07-31T08:09:59.150Z,26.60
2023-07-31T08:12:27.304Z,26.50
2023-07-31T08:14:55.422Z,26.40
2023-07-31T08:17:23.483Z,26.30
2023-07-31T08:19:52.998Z,26.70
2023-07-31T08:22:21.071Z,26.90
2023-07-31T08:24:49.116Z,26.70
2023-07-31T08:27:17.165Z,26.40
2023-07-31T08:29:45.302Z,27.50
2023-07-31T08:32:13.308Z,27.60
2023-07-31T08:34:42.822Z,28.60
2023-07-31T08:37:13.084Z,28.70
2023-07-31T08:39:41.705Z,26.60
2023-07-31T08:42:11.135Z,25.70
2023-07-31T08:44:40.512Z,25.60
2023-07-31T08:47:08.768Z,25.60
2023-07-31T08:49:38.521Z,26.00
2023-07-31T08:52:07.666Z,26.10
2023-07-31T08:54:37.028Z,27.20
2023-07-31T08:57:07.100Z,26.10
2023-07-31T08:59:37.219Z,26.50
2023-07-31T09:02:09.462Z,26.70
2023-07-31T09:04:37.641Z,25.20
2023-07-31T09:07:07.315Z,25.50
2023-07-31T09:09:36.898Z,25.80
2023-07-31T09:12:05.693Z,25.00
2023-07-31T09:14:34.458Z,24.40
2023-07-31T09:17:02.785Z,26.30
2023-07-31T09:19:35.075Z,26.10
2023-07-31T09:22:03.252Z,26.30
2023-07-31T09:24:33.035Z,25.60
2023-07-31T09:27:03.940Z,26.20
2023-07-31T09:29:32.378Z,24.80
2023-07-31T09:32:00.642Z,22.70
2023-07-31T09:34:38.508Z,23.50
2023-07-31T09:37:07.418Z,23.90
2023-07-31T09:39:48.240Z,23.30
2023-07-31T09:42:27.367Z,23.80
2023-07-31T09:44:57.641Z,23.60
2023-07-31T09:47:27.626Z,23.80
2023-07-31T09:49:56.086Z,23.70
2023-07-31T09:52:24.284Z,24.20
2023-07-31T09:54:52.359Z,25.40
2023-07-31T09:57:24.700Z,27.00
2023-07-31T09:59:54.838Z,28.20
2023-07-31T10:02:24.657Z,28.30
2023-07-31T10:04:53.874Z,27.50
2023-07-31T10:07:25.529Z,27.00
2023-07-31T10:09:56.016Z,27.10
2023-07-31T10:12:29.265Z,26.90
2023-07-31T10:14:57.838Z,26.70
2023-07-31T10:17:27.038Z,27.10
2023-07-31T10:19:55.695Z,26.50
2023-07-31T10:22:23.941Z,25.90
2023-07-31T10:24:54.514Z,25.00
2023-07-31T10:27:22.744Z,23.60
2023-07-31T10:29:54.458Z,23.70
2023-07-31T10:32:23.440Z,24.30
2023-07-31T10:34:52.365Z,24.70
2023-07-31T10:37:25.490Z,25.00
2023-07-31T10:40:01.523Z,25.30
2023-07-31T10:42:34.819Z,25.70
2023-07-31T10:45:06.723Z,25.70
2023-07-31T10:47:39.902Z,25.30
2023-07-31T10:50:16.195Z,24.80
2023-07-31T10:52:49.468Z,25.30
2023-07-31T10:55:33.500Z,25.50
2023-07-31T10:58:08.968Z,24.50
2023-07-31T11:00:39.805Z,24.40
2023-07-31T11:03:10.244Z,24.50
2023-07-31T11:05:54.497Z,24.50
2023-07-31T11:08:24.338Z,25.00
2023-07-31T11:10:55.094Z,25.40
2023-07-31T11:13:23.226Z,25.70
2023-07-31T11:15:53.456Z,25.20
2023-07-31T11:18:21.523Z,25.10
2023-07-31T11:20:49.787Z,25.50
2023-07-31T11:23:19.808Z,25.60
2023-07-31T11:25:48.257Z,25.50
2023-07-31T11:28:17.652Z,25.30
2023-07-31T11:30:47.003Z,26.60
2023-07-31T11:33:16.806Z,26.60
2023-07-31T11:35:46.859Z,26.10
2023-07-31T11:38:22.917Z,25.70
2023-07-31T11:40:51.005Z,25.40
2023-07-31T11:43:21.180Z,25.90
2023-07-31T11:45:50.657Z,25.90
2023-07-31T11:48:24.352Z,24.70
2023-07-31T11:50:54.245Z,24.80
2023-07-31T11:53:27.509Z,25.60
2023-07-31T11:55:56.336Z,26.00
2023-07-31T11:58:25.037Z,26.00
2023-07-31T12:00:53.932Z,25.70
2023-07-31T12:03:23.723Z,24.80
2023-07-31T12:05:52.089Z,25.70
2023-07-31T12:08:23.522Z,26.50
2023-07-31T12:10:52.825Z,26.20
2023-07-31T12:13:23.763Z,26.10
2023-07-31T12:15:57.358Z,26.60
2023-07-31T12:18:28.567Z,26.50
2023-07-31T12:20:58.021Z,26.30
2023-07-31T12:23:30.019Z,25.20
2023-07-31T12:26:05.528Z,25.10
2023-07-31T12:28:37.734Z,25.60
2023-07-31T12:31:07.200Z,26.20
2023-07-31T12:33:38.960Z,26.50
2023-07-31T12:36:09.982Z,26.10
2023-07-31T12:38:38.207Z,25.90
2023-07-31T12:41:07.919Z,25.80
2023-07-31T12:43:36.159Z,25.20
2023-07-31T12:46:05.013Z,24.30
2023-07-31T12:48:34.200Z,23.90
2023-07-31T12:51:03.899Z,23.90
2023-07-31T12:53:32.289Z,23.70
2023-07-31T12:56:00.765Z,23.90
2023-07-31T12:58:28.897Z,23.50
2023-07-31T13:00:57.156Z,23.70
2023-07-31T13:03:25.427Z,23.70
2023-07-31T13:05:54.205Z,24.30
2023-07-31T13:08:23.679Z,25.20
2023-07-31T13:10:51.777Z,24.90
2023-07-31T13:13:19.817Z,24.20
2023-07-31T13:15:47.913Z,23.90
2023-07-31T13:18:15.981Z,23.60
2023-07-31T13:20:44.021Z,24.30
2023-07-31T13:23:12.051Z,24.60
2023-07-31T13:25:41.497Z,24.90
2023-07-31T13:28:09.581Z,25.30
2023-07-31T13:30:37.681Z,25.80
2023-07-31T13:33:06.084Z,26.40
2023-07-31T13:35:34.712Z,27.40
2023-07-31T13:38:02.763Z,27.90
2023-07-31T13:40:30.817Z,27.90
2023-07-31T13:43:00.205Z,27.30
2023-07-31T13:45:28.276Z,27.50
2023-07-31T13:47:56.469Z,27.60
2023-07-31T13:50:24.584Z,27.10
2023-07-31T13:52:52.691Z,26.30
2023-07-31T13:55:20.717Z,26.10
2023-07-31T13:57:49.821Z,26.20
2023-07-31T14:00:19.610Z,26.00
2023-07-31T14:02:47.772Z,25.70
2023-07-31T14:05:15.974Z,25.90
2023-07-31T14:07:44.156Z,25.60
2023-07-31T14:10:12.277Z,25.70
2023-07-31T14:12:42.617Z,25.90
2023-07-31T14:15:12.295Z,26.20
2023-07-31T14:17:42.207Z,25.30
2023-07-31T14:20:12.377Z,25.10
2023-07-31T14:22:40.954Z,25.70
2023-07-31T14:25:11.473Z,26.00
2023-07-31T14:27:39.965Z,25.90
2023-07-31T14:30:09.560Z,25.40
2023-07-31T14:32:38.263Z,25.90
2023-07-31T14:35:08.406Z,25.80
2023-07-31T14:37:40.693Z,25.90
2023-07-31T14:40:10.085Z,26.30
2023-07-31T14:42:38.670Z,26.50
2023-07-31T14:45:11.125Z,26.30
2023-07-31T14:47:39.423Z,26.50
2023-07-31T14:50:10.014Z,26.20
2023-07-31T14:52:38.197Z,25.90
2023-07-31T14:55:07.164Z,25.70
2023-07-31T14:57:35.874Z,25.00
2023-07-31T15:00:08.354Z,25.10
2023-07-31T15:02:36.897Z,25.30
2023-07-31T15:05:05.451Z,25.00
2023-07-31T15:07:34.996Z,25.10
2023-07-31T15:10:03.916Z,26.10
2023-07-31T15:12:32.356Z,27.00
2023-07-31T15:15:00.691Z,26.20
2023-07-31T15:17:29.761Z,26.60
2023-07-31T15:19:57.873Z,26.10
2023-07-31T15:22:26.540Z,26.70
2023-07-31T15:24:56.012Z,27.40
2023-07-31T15:27:24.481Z,26.70
2023-07-31T15:29:52.704Z,25.70
2023-07-31T15:32:21.083Z,25.60
2023-07-31T15:34:49.164Z,26.20
2023-07-31T15:37:18.484Z,26.80
2023-07-31T15:39:46.651Z,27.80
2023-07-31T15:42:16.125Z,27.00
2023-07-31T15:44:44.198Z,27.10
2023-07-31T15:47:12.269Z,26.60
2023-07-31T15:49:40.315Z,26.20
2023-07-31T15:52:09.085Z,26.70
2023-07-31T15:54:37.159Z,27.30
2023-07-31T15:57:05.591Z,27.00
2023-07-31T15:59:35.022Z,26.70
2023-07-31T16:02:03.236Z,26.10
2023-07-31T16:04:31.322Z,26.70
2023-07-31T16:06:59.708Z,27.20
2023-07-31T16:09:27.828Z,27.40
2023-07-31T16:11:55.947Z,25.90
2023-07-31T16:14:24.081Z,26.10
2023-07-31T16:16:54.007Z,26.20
2023-07-31T16:19:22.570Z,26.70
2023-07-31T16:21:50.646Z,26.40
2023-07-31T16:24:18.690Z,25.90
2023-07-31T16:26:46.753Z,25.50
2023-07-31T16:29:14.901Z,25.30
2023-07-31T16:31:56.539Z,25.30
2023-07-31T16:34:27.657Z,25.60
2023-07-31T16:36:57.158Z,25.40
2023-07-31T16:39:25.706Z,24.90
2023-07-31T16:41:54.156Z,24.60
2023-07-31T16:44:22.342Z,25.00
2023-07-31T16:46:50.411Z,25.00
2023-07-31T16:49:18.473Z,24.80
2023-07-31T16:51:49.313Z,24.40
2023-07-31T16:54:17.582Z,24.20
2023-07-31T16:56:58.649Z,23.90
2023-07-31T16:59:28.680Z,24.00
2023-07-31T17:02:00.286Z,23.80
2023-07-31T17:04:43.371Z,23.80
2023-07-31T17:07:13.165Z,23.80
2023-07-31T17:09:41.176Z,23.80
2023-07-31T17:12:09.671Z,23.60
2023-07-31T17:14:37.697Z,23.80
2023-07-31T17:17:06.236Z,23.80
2023-07-31T17:19:34.303Z,23.60
2023-07-31T17:22:02.380Z,23.70
2023-07-31T17:24:31.800Z,23.50
2023-07-31T17:26:59.942Z,23.50
2023-07-31T17:29:31.095Z,23.50
2023-07-31T17:31:59.242Z,23.60
2023-07-31T17:34:27.318Z,23.60
2023-07-31T17:36:55.782Z,23.60
2023-07-31T17:39:24.006Z,23.50
2023-07-31T17:41:55.572Z,23.50
2023-07-31T17:44:23.902Z,23.50
2023-07-31T17:46:52.891Z,23.40
2023-07-31T17:49:21.094Z,23.30
2023-07-31T17:51:49.154Z,23.30
2023-07-31T17:54:17.353Z,23.30
2023-07-31T17:56:45.520Z,23.30
2023-07-31T17:59:15.002Z,23.30
2023-07-31T18:01:43.056Z,23.30
2023-07-31T18:04:12.126Z,23.20
2023-07-31T18:06:40.704Z,23.20
2023-07-31T18:09:10.436Z,23.10
2023-07-31T18:11:38.612Z,23.10
2023-07-31T18:14:08.528Z,23.00
2023-07-31T18:16:38.815Z,23.00
2023-07-31T18:19:07.453Z,22.80
2023-07-31T18:21:37.469Z,22.70
2023-07-31T18:24:06.542Z,22.60
2023-07-31T18:26:36.075Z,22.60
2023-07-31T18:29:04.397Z,22.60
2023-07-31T18:31:32.530Z,22.60
2023-07-31T18:34:01.983Z,22.50
2023-07-31T18:36:30.042Z,22.50
2023-07-31T18:38:58.590Z,22.50
2023-07-31T18:41:26.711Z,22.40
2023-07-31T18:43:54.802Z,22.20
2023-07-31T18:46:22.817Z,22.10
2023-07-31T18:48:50.941Z,22.00
2023-07-31T18:51:20.579Z,21.70
2023-07-31T18:53:48.733Z,21.30
2023-07-31T18:56:16.971Z,21.00
2023-07-31T18:58:45.077Z,20.70
2023-07-31T19:01:13.150Z,20.30
2023-07-31T19:03:41.259Z,19.90
2023-07-31T19:06:09.469Z,19.70
2023-07-31T19:08:39.189Z,19.50
2023-07-31T19:11:08.996Z,19.30
2023-07-31T19:13:38.702Z,19.20
2023-07-31T19:16:09.385Z,19.10
2023-07-31T19:18:38.525Z,19.10
2023-07-31T19:21:06.660Z,19.00
2023-07-31T19:23:34.840Z,18.90
2023-07-31T19:26:04.358Z,18.80
2023-07-31T19:28:32.557Z,18.60
2023-07-31T19:31:01.142Z,18.60
2023-07-31T19:33:29.322Z,18.50
2023-07-31T19:35:58.877Z,18.40
2023-07-31T19:38:27.554Z,18.50
2023-07-31T19:40:55.662Z,18.50
2023-07-31T19:43:25.199Z,18.50
2023-07-31T19:45:54.541Z,18.40
2023-07-31T19:48:23.018Z,18.40
2023-07-31T19:50:51.303Z,18.30
2023-07-31T19:53:22.917Z,18.30
2023-07-31T19:55:51.755Z,18.20
2023-07-31T19:58:19.962Z,18.20
2023-07-31T20:00:49.371Z,18.20
2023-07-31T20:03:19.427Z,18.20
2023-07-31T20:05:49.715Z,18.10
2023-07-31T20:08:18.087Z,18.00
2023-07-31T20:10:46.688Z,18.00
2023-07-31T20:13:14.986Z,17.90
2023-07-31T20:15:43.282Z,17.90
2023-07-31T20:18:12.909Z,17.90
2023-07-31T20:20:41.135Z,17.80
2023-07-31T20:23:09.484Z,17.90
2023-07-31T20:25:37.664Z,17.80
2023-07-31T20:28:06.111Z,17.80
2023-07-31T20:30:34.573Z,17.80
2023-07-31T20:33:02.781Z,17.90
2023-07-31T20:35:32.304Z,17.80
2023-07-31T20:38:00.400Z,17.80
2023-07-31T20:40:28.731Z,17.80
2023-07-31T20:42:58.437Z,17.70
2023-07-31T20:45:28.946Z,17.70
2023-07-31T20:47:57.277Z,17.70
2023-07-31T20:50:25.674Z,17.60
2023-07-31T20:52:55.318Z,17.70
2023-07-31T20:55:23.486Z,17.60
2023-07-31T20:57:53.386Z,17.60
2023-07-31T21:00:22.822Z,17.70
2023-07-31T21:02:51.285Z,17.70
2023-07-31T21:05:19.625Z,17.80
2023-07-31T21:07:47.738Z,17.70
2023-07-31T21:10:17.349Z,17.70
2023-07-31T21:12:45.904Z,17.80
2023-07-31T21:15:14.827Z,17.70
2023-07-31T21:17:42.984Z,17.70
2023-07-31T21:20:11.647Z,17.70
2023-07-31T21:22:39.876Z,17.70
2023-07-31T21:25:08.653Z,17.70
2023-07-31T21:27:38.310Z,17.70
2023-07-31T21:30:07.295Z,17.80
2023-07-31T21:32:35.461Z,17.80
2023-07-31T21:35:03.742Z,17.90
2023-07-31T21:37:31.931Z,17.80
2023-07-31T21:40:00.180Z,17.80
2023-07-31T21:42:28.349Z,17.70
2023-07-31T21:44:57.776Z,17.80
2023-07-31T21:47:25.955Z,17.80
2023-07-31T21:49:54.073Z,17.80
2023-07-31T21:52:28.066Z,17.90
2023-07-31T21:54:56.175Z,17.90
2023-07-31T21:57:24.295Z,18.00
2023-07-31T21:59:52.389Z,18.00
2023-07-31T22:02:21.970Z,18.10
2023-07-31T22:04:50.086Z,18.20
2023-07-31T22:07:18.377Z,18.20
2023-07-31T22:09:46.527Z,18.20
2023-07-31T22:12:14.654Z,18.30
2023-07-31T22:14:43.002Z,18.40
2023-07-31T22:17:11.191Z,18.40
2023-07-31T22:19:40.649Z,18.50
2023-07-31T22:22:08.999Z,18.50
2023-07-31T22:24:37.452Z,18.50
2023-07-31T22:27:06.158Z,18.50
2023-07-31T22:29:34.313Z,18.50
2023-07-31T22:32:02.427Z,18.50
2023-07-31T22:34:30.469Z,18.50
2023-07-31T22:36:59.953Z,18.50
2023-07-31T22:39:28.009Z,18.50
2023-07-31T22:41:56.096Z,18.50
2023-07-31T22:44:24.202Z,18.50
2023-07-31T22:46:52.290Z,18.60
2023-07-31T22:49:20.409Z,18.60
2023-07-31T22:51:48.484Z,18.60
2023-07-31T22:54:17.842Z,18.60
2023-07-31T22:56:45.927Z,18.60
2023-07-31T22:59:13.997Z,18.70
2023-07-31T23:01:42.204Z,18.70
2023-07-31T23:04:12.069Z,18.70
2023-07-31T23:06:40.358Z,18.70
2023-07-31T23:09:08.705Z,18.80
2023-07-31T23:11:38.292Z,18.80
2023-07-31T23:14:06.369Z,18.80
2023-07-31T23:16:34.540Z,18.90
2023-07-31T23:19:02.685Z,18.90
2023-07-31T23:21:30.755Z,19.00
2023-07-31T23:23:58.855Z,19.00
2023-07-31T23:26:27.012Z,19.00
2023-07-31T23:28:57.819Z,19.00
2023-07-31T23:31:25.972Z,19.10
2023-07-31T23:33:54.205Z,19.10
2023-07-31T23:36:22.290Z,19.10
2023-07-31T23:38:50.376Z,19.10
2023-07-31T23:41:19.611Z,19.00
2023-07-31T23:43:47.698Z,19.00
2023-07-31T23:46:17.191Z,19.00
2023-07-31T23:48:45.385Z,18.90
2023-07-31T23:51:13.767Z,18.90
2023-07-31T23:53:41.910Z,18.80
2023-07-31T23:56:10.340Z,18.70
2023-07-31T23:58:38.535Z,18.60
